Time;durP1;ratioP1;P1;durP2;ratioP2;P2;SDS_P1;SDS_P2;PMS_P1;PMS_P2;Temp;Humidity;BMP_temperature;BMP_pressure;BME280_temperature;BME280_humidity;BME280_pressure;Samples;Min_cycle;Max_cycle;Signal;HPM_P1;HPM_P2
2019/11/06 00:01:00;;;;;;;4.1;3.5;;;;;;;2.33;100;93687.59;;;;
2019/11/06 00:02:01;;;;;;;4.1;3.5;;;;;;;2.33;100;93687.59;;;;
2019/11/06 00:03:02;;;;;;;4.1;3.5;;;;;;;2.33;100;93687.59;;;;
2019/11/06 00:04:03;;;;;;;5.749999;3.9;;;;;;;2.2;100;93693.08;;;;
2019/11/06 00:05:05;;;;;;;5.749999;3.9;;;;;;;2.2;100;93693.08;;;;
2019/11/06 00:06:06;;;;;;;5.749999;3.9;;;;;;;2.2;100;93693.08;;;;
2019/11/06 00:07:07;;;;;;;5.749999;3.9;;;;;;;2.2;100;93693.08;;;;
2019/11/06 00:08:08;;;;;;;5.749999;3.9;;;;;;;2.2;100;93693.08;;;;
2019/11/06 00:09:09;;;;;;;5.749999;3.9;;;;;;;2.2;100;93693.08;;;;
2019/11/06 00:10:10;;;;;;;5.749999;3.9;;;;;;;2.2;100;93693.08;;;;
2019/11/06 00:11:11;;;;;;;5.749999;3.9;;;;;;;2.2;100;93693.08;;;;
2019/11/06 00:12:13;;;;;;;5.749999;3.9;;;;;;;2.2;100;93693.08;;;;
2019/11/06 00:13:14;;;;;;;5.749999;3.9;;;;;;;2.2;100;93693.08;;;;
2019/11/06 00:14:15;;;;;;;6.249999;5.15;;;;;;;2.21;100;93705.88;;;;
2019/11/06 00:15:16;;;;;;;6.249999;5.15;;;;;;;2.21;100;93705.88;;;;
2019/11/06 00:16:17;;;;;;;6.249999;5.15;;;;;;;2.21;100;93705.88;;;;
2019/11/06 00:17:18;;;;;;;6.249999;5.15;;;;;;;2.21;100;93705.88;;;;
2019/11/06 00:18:19;;;;;;;6.249999;5.15;;;;;;;2.21;100;93705.88;;;;
2019/11/06 00:19:20;;;;;;;6.249999;5.15;;;;;;;2.21;100;93705.88;;;;
2019/11/06 00:20:21;;;;;;;6.249999;5.15;;;;;;;2.21;100;93705.88;;;;
2019/11/06 00:21:23;;;;;;;6.249999;5.15;;;;;;;2.21;100;93705.88;;;;
2019/11/06 00:22:24;;;;;;;6.249999;5.15;;;;;;;2.21;100;93705.88;;;;
2019/11/06 00:23:25;;;;;;;6.249999;5.15;;;;;;;2.21;100;93705.88;;;;
2019/11/06 00:24:26;;;;;;;7.349999;5.5;;;;;;;2.22;100;93714.15;;;;
2019/11/06 00:25:27;;;;;;;7.349999;5.5;;;;;;;2.22;100;93714.15;;;;
2019/11/06 00:26:28;;;;;;;7.349999;5.5;;;;;;;2.22;100;93714.15;;;;
2019/11/06 00:27:29;;;;;;;7.349999;5.5;;;;;;;2.22;100;93714.15;;;;
2019/11/06 00:28:30;;;;;;;7.349999;5.5;;;;;;;2.22;100;93714.15;;;;
2019/11/06 00:29:32;;;;;;;7.349999;5.5;;;;;;;2.22;100;93714.15;;;;
2019/11/06 00:30:33;;;;;;;7.349999;5.5;;;;;;;2.22;100;93714.15;;;;
2019/11/06 00:31:34;;;;;;;7.349999;5.5;;;;;;;2.22;100;93714.15;;;;
2019/11/06 00:32:35;;;;;;;7.349999;5.5;;;;;;;2.22;100;93714.15;;;;
2019/11/06 00:33:36;;;;;;;7.349999;5.5;;;;;;;2.22;100;93714.15;;;;
2019/11/06 00:34:37;;;;;;;7.349999;5.5;;;;;;;2.22;100;93714.15;;;;
2019/11/06 00:35:38;;;;;;;5.2;4.6;;;;;;;2.26;100;93713.59;;;;
2019/11/06 00:36:39;;;;;;;5.2;4.6;;;;;;;2.26;100;93713.59;;;;
2019/11/06 00:37:40;;;;;;;5.2;4.6;;;;;;;2.26;100;93713.59;;;;
2019/11/06 00:38:41;;;;;;;5.2;4.6;;;;;;;2.26;100;93713.59;;;;
2019/11/06 00:39:42;;;;;;;5.2;4.6;;;;;;;2.26;100;93713.59;;;;
2019/11/06 00:40:44;;;;;;;5.2;4.6;;;;;;;2.26;100;93713.59;;;;
2019/11/06 00:41:45;;;;;;;5.2;4.6;;;;;;;2.26;100;93713.59;;;;
2019/11/06 00:42:46;;;;;;;5.2;4.6;;;;;;;2.26;100;93713.59;;;;
2019/11/06 00:43:47;;;;;;;5.2;4.6;;;;;;;2.26;100;93713.59;;;;
2019/11/06 00:44:48;;;;;;;5.2;4.6;;;;;;;2.26;100;93713.59;;;;
2019/11/06 00:45:49;;;;;;;5.95;4.75;;;;;;;2.28;100;93714.18;;;;
2019/11/06 00:46:50;;;;;;;5.95;4.75;;;;;;;2.28;100;93714.18;;;;
2019/11/06 00:47:51;;;;;;;5.95;4.75;;;;;;;2.28;100;93714.18;;;;
2019/11/06 00:48:52;;;;;;;5.95;4.75;;;;;;;2.28;100;93714.18;;;;
2019/11/06 00:49:53;;;;;;;5.95;4.75;;;;;;;2.28;100;93714.18;;;;
2019/11/06 00:50:55;;;;;;;5.95;4.75;;;;;;;2.28;100;93714.18;;;;
2019/11/06 00:51:56;;;;;;;5.95;4.75;;;;;;;2.28;100;93714.18;;;;
2019/11/06 00:52:57;;;;;;;5.95;4.75;;;;;;;2.28;100;93714.18;;;;
2019/11/06 00:53:58;;;;;;;5.95;4.75;;;;;;;2.28;100;93714.18;;;;
2019/11/06 00:54:59;;;;;;;5.95;4.75;;;;;;;2.28;100;93714.18;;;;
2019/11/06 00:56:00;;;;;;;5.95;4.75;;;;;;;2.28;100;93714.18;;;;
2019/11/06 00:57:02;;;;;;;4.55;3.75;;;;;;;2.39;100;93721.42;;;;
2019/11/06 00:58:03;;;;;;;4.55;3.75;;;;;;;2.39;100;93721.42;;;;
2019/11/06 00:59:04;;;;;;;4.55;3.75;;;;;;;2.39;100;93721.42;;;;
2019/11/06 01:00:05;;;;;;;4.55;3.75;;;;;;;2.39;100;93721.42;;;;
2019/11/06 01:01:07;;;;;;;4.55;3.75;;;;;;;2.39;100;93721.42;;;;
2019/11/06 01:02:08;;;;;;;4.55;3.75;;;;;;;2.39;100;93721.42;;;;
2019/11/06 01:03:09;;;;;;;4.55;3.75;;;;;;;2.39;100;93721.42;;;;
2019/11/06 01:04:10;;;;;;;4.55;3.75;;;;;;;2.39;100;93721.42;;;;
2019/11/06 01:05:11;;;;;;;4.55;3.75;;;;;;;2.39;100;93721.42;;;;
2019/11/06 01:06:12;;;;;;;4.55;3.75;;;;;;;2.39;100;93721.42;;;;
2019/11/06 01:07:13;;;;;;;3.95;3.55;;;;;;;2.37;100;93710.6;;;;
2019/11/06 01:08:15;;;;;;;3.95;3.55;;;;;;;2.37;100;93710.6;;;;
2019/11/06 01:09:16;;;;;;;3.95;3.55;;;;;;;2.37;100;93710.6;;;;
2019/11/06 01:10:17;;;;;;;3.95;3.55;;;;;;;2.37;100;93710.6;;;;
2019/11/06 01:11:18;;;;;;;3.95;3.55;;;;;;;2.37;100;93710.6;;;;
2019/11/06 01:12:19;;;;;;;3.95;3.55;;;;;;;2.37;100;93710.6;;;;
2019/11/06 01:13:20;;;;;;;3.95;3.55;;;;;;;2.37;100;93710.6;;;;
2019/11/06 01:14:21;;;;;;;3.95;3.55;;;;;;;2.37;100;93710.6;;;;
2019/11/06 01:15:22;;;;;;;3.95;3.55;;;;;;;2.37;100;93710.6;;;;
2019/11/06 01:16:23;;;;;;;3.95;3.55;;;;;;;2.37;100;93710.6;;;;
2019/11/06 01:17:25;;;;;;;3.95;3.55;;;;;;;2.37;100;93710.6;;;;
2019/11/06 01:18:26;;;;;;;3.35;3;;;;;;;2.36;100;93716.55;;;;
2019/11/06 01:19:27;;;;;;;3.35;3;;;;;;;2.36;100;93716.55;;;;
2019/11/06 01:20:28;;;;;;;3.35;3;;;;;;;2.36;100;93716.55;;;;
2019/11/06 01:21:29;;;;;;;3.35;3;;;;;;;2.36;100;93716.55;;;;
2019/11/06 01:22:30;;;;;;;3.35;3;;;;;;;2.36;100;93716.55;;;;
2019/11/06 01:23:31;;;;;;;3.35;3;;;;;;;2.36;100;93716.55;;;;
2019/11/06 01:24:32;;;;;;;3.35;3;;;;;;;2.36;100;93716.55;;;;
2019/11/06 01:25:34;;;;;;;3.35;3;;;;;;;2.36;100;93716.55;;;;
2019/11/06 01:26:44;;;;;;;3.35;3;;;;;;;2.36;100;93716.55;;;;
2019/11/06 01:27:45;;;;;;;3.35;3;;;;;;;2.36;100;93716.55;;;;
2019/11/06 01:28:46;;;;;;;3.65;3.15;;;;;;;2.27;100;93720.56;;;;
2019/11/06 01:29:47;;;;;;;3.65;3.15;;;;;;;2.27;100;93720.56;;;;
2019/11/06 01:30:56;;;;;;;3.65;3.15;;;;;;;2.27;100;93720.56;;;;
2019/11/06 01:32:06;;;;;;;3.65;3.15;;;;;;;2.27;100;93720.56;;;;
2019/11/06 01:33:08;;;;;;;3.65;3.15;;;;;;;2.27;100;93720.56;;;;
2019/11/06 01:34:09;;;;;;;3.65;3.15;;;;;;;2.27;100;93720.56;;;;
2019/11/06 01:35:10;;;;;;;3.65;3.15;;;;;;;2.27;100;93720.56;;;;
2019/11/06 01:36:11;;;;;;;3.65;3.15;;;;;;;2.27;100;93720.56;;;;
2019/11/06 01:37:13;;;;;;;3.65;3.15;;;;;;;2.27;100;93720.56;;;;
2019/11/06 01:38:14;;;;;;;3.65;3.15;;;;;;;2.27;100;93720.56;;;;
2019/11/06 01:39:15;;;;;;;3.4;3.05;;;;;;;2.17;100;93729.47;;;;
2019/11/06 01:40:19;;;;;;;3.4;3.05;;;;;;;2.17;100;93729.47;;;;
2019/11/06 01:41:21;;;;;;;3.4;3.05;;;;;;;2.17;100;93729.47;;;;
2019/11/06 01:42:22;;;;;;;3.4;3.05;;;;;;;2.17;100;93729.47;;;;
2019/11/06 01:43:23;;;;;;;3.4;3.05;;;;;;;2.17;100;93729.47;;;;
2019/11/06 01:44:24;;;;;;;3.4;3.05;;;;;;;2.17;100;93729.47;;;;
2019/11/06 01:45:25;;;;;;;3.4;3.05;;;;;;;2.17;100;93729.47;;;;
2019/11/06 01:46:26;;;;;;;3.4;3.05;;;;;;;2.17;100;93729.47;;;;
2019/11/06 01:47:27;;;;;;;3.4;3.05;;;;;;;2.17;100;93729.47;;;;
2019/11/06 01:48:28;;;;;;;3.4;3.05;;;;;;;2.17;100;93729.47;;;;
2019/11/06 01:49:29;;;;;;;4.249999;3.8;;;;;;;2.31;100;93738.11;;;;
2019/11/06 01:50:30;;;;;;;4.249999;3.8;;;;;;;2.31;100;93738.11;;;;
2019/11/06 01:51:32;;;;;;;4.249999;3.8;;;;;;;2.31;100;93738.11;;;;
2019/11/06 01:52:33;;;;;;;4.249999;3.8;;;;;;;2.31;100;93738.11;;;;
2019/11/06 01:53:34;;;;;;;4.249999;3.8;;;;;;;2.31;100;93738.11;;;;
2019/11/06 01:54:35;;;;;;;4.249999;3.8;;;;;;;2.31;100;93738.11;;;;
2019/11/06 01:55:36;;;;;;;4.249999;3.8;;;;;;;2.31;100;93738.11;;;;
2019/11/06 01:56:37;;;;;;;4.249999;3.8;;;;;;;2.31;100;93738.11;;;;
2019/11/06 01:57:38;;;;;;;4.249999;3.8;;;;;;;2.31;100;93738.11;;;;
2019/11/06 01:58:39;;;;;;;4.249999;3.8;;;;;;;2.31;100;93738.11;;;;
2019/11/06 01:59:40;;;;;;;4.249999;3.8;;;;;;;2.31;100;93738.11;;;;
2019/11/06 02:00:42;;;;;;;4.4;3.75;;;;;;;2.46;100;93732.7;;;;
2019/11/06 02:01:43;;;;;;;4.4;3.75;;;;;;;2.46;100;93732.7;;;;
2019/11/06 02:02:44;;;;;;;4.4;3.75;;;;;;;2.46;100;93732.7;;;;
2019/11/06 02:03:45;;;;;;;4.4;3.75;;;;;;;2.46;100;93732.7;;;;
2019/11/06 02:04:46;;;;;;;4.4;3.75;;;;;;;2.46;100;93732.7;;;;
2019/11/06 02:05:47;;;;;;;4.4;3.75;;;;;;;2.46;100;93732.7;;;;
2019/11/06 02:06:48;;;;;;;4.4;3.75;;;;;;;2.46;100;93732.7;;;;
2019/11/06 02:07:49;;;;;;;4.4;3.75;;;;;;;2.46;100;93732.7;;;;
2019/11/06 02:08:51;;;;;;;4.4;3.75;;;;;;;2.46;100;93732.7;;;;
2019/11/06 02:09:52;;;;;;;4.4;3.75;;;;;;;2.46;100;93732.7;;;;
2019/11/06 02:10:54;;;;;;;3.2;2.8;;;;;;;2.72;100;93723.52;;;;
2019/11/06 02:11:55;;;;;;;3.2;2.8;;;;;;;2.72;100;93723.52;;;;
2019/11/06 02:12:56;;;;;;;3.2;2.8;;;;;;;2.72;100;93723.52;;;;
2019/11/06 02:13:57;;;;;;;3.2;2.8;;;;;;;2.72;100;93723.52;;;;
2019/11/06 02:14:59;;;;;;;3.2;2.8;;;;;;;2.72;100;93723.52;;;;
2019/11/06 02:16:00;;;;;;;3.2;2.8;;;;;;;2.72;100;93723.52;;;;
2019/11/06 02:17:01;;;;;;;3.2;2.8;;;;;;;2.72;100;93723.52;;;;
2019/11/06 02:18:02;;;;;;;3.2;2.8;;;;;;;2.72;100;93723.52;;;;
2019/11/06 02:19:03;;;;;;;3.2;2.8;;;;;;;2.72;100;93723.52;;;;
2019/11/06 02:20:04;;;;;;;3.2;2.8;;;;;;;2.72;100;93723.52;;;;
2019/11/06 02:21:06;;;;;;;2.5;2.3;;;;;;;2.68;100;93724.5;;;;
2019/11/06 02:22:07;;;;;;;2.5;2.3;;;;;;;2.68;100;93724.5;;;;
2019/11/06 02:23:08;;;;;;;2.5;2.3;;;;;;;2.68;100;93724.5;;;;
2019/11/06 02:24:09;;;;;;;2.5;2.3;;;;;;;2.68;100;93724.5;;;;
2019/11/06 02:25:10;;;;;;;2.5;2.3;;;;;;;2.68;100;93724.5;;;;
2019/11/06 02:26:12;;;;;;;2.5;2.3;;;;;;;2.68;100;93724.5;;;;
2019/11/06 02:27:13;;;;;;;2.5;2.3;;;;;;;2.68;100;93724.5;;;;
2019/11/06 02:28:14;;;;;;;2.5;2.3;;;;;;;2.68;100;93724.5;;;;
2019/11/06 02:29:15;;;;;;;2.5;2.3;;;;;;;2.68;100;93724.5;;;;
2019/11/06 02:30:16;;;;;;;2.5;2.3;;;;;;;2.68;100;93724.5;;;;
2019/11/06 02:31:17;;;;;;;2.5;2.3;;;;;;;2.68;100;93724.5;;;;
2019/11/06 02:32:19;;;;;;;3;2.2;;;;;;;2.58;100;93734.48;;;;
2019/11/06 02:33:20;;;;;;;3;2.2;;;;;;;2.58;100;93734.48;;;;
2019/11/06 02:34:21;;;;;;;3;2.2;;;;;;;2.58;100;93734.48;;;;
2019/11/06 02:35:22;;;;;;;3;2.2;;;;;;;2.58;100;93734.48;;;;
2019/11/06 02:36:23;;;;;;;3;2.2;;;;;;;2.58;100;93734.48;;;;
2019/11/06 02:37:24;;;;;;;3;2.2;;;;;;;2.58;100;93734.48;;;;
2019/11/06 02:38:26;;;;;;;3;2.2;;;;;;;2.58;100;93734.48;;;;
2019/11/06 02:39:27;;;;;;;3;2.2;;;;;;;2.58;100;93734.48;;;;
2019/11/06 02:40:28;;;;;;;3;2.2;;;;;;;2.58;100;93734.48;;;;
2019/11/06 02:41:29;;;;;;;3;2.2;;;;;;;2.58;100;93734.48;;;;
2019/11/06 02:42:30;;;;;;;2.3;2;;;;;;;2.46;100;93724.72;;;;
2019/11/06 02:43:31;;;;;;;2.3;2;;;;;;;2.46;100;93724.72;;;;
2019/11/06 02:44:33;;;;;;;2.3;2;;;;;;;2.46;100;93724.72;;;;
2019/11/06 02:45:34;;;;;;;2.3;2;;;;;;;2.46;100;93724.72;;;;
2019/11/06 02:46:35;;;;;;;2.3;2;;;;;;;2.46;100;93724.72;;;;
2019/11/06 02:47:37;;;;;;;2.3;2;;;;;;;2.46;100;93724.72;;;;
2019/11/06 02:48:38;;;;;;;2.3;2;;;;;;;2.46;100;93724.72;;;;
2019/11/06 02:49:39;;;;;;;2.3;2;;;;;;;2.46;100;93724.72;;;;
2019/11/06 02:50:40;;;;;;;2.3;2;;;;;;;2.46;100;93724.72;;;;
2019/11/06 02:51:42;;;;;;;2.3;2;;;;;;;2.46;100;93724.72;;;;
2019/11/06 02:52:43;;;;;;;2.3;2;;;;;;;2.46;100;93724.72;;;;
2019/11/06 02:53:44;;;;;;;2.25;1.95;;;;;;;2.39;100;93726.23;;;;
2019/11/06 02:54:45;;;;;;;2.25;1.95;;;;;;;2.39;100;93726.23;;;;
2019/11/06 02:55:46;;;;;;;2.25;1.95;;;;;;;2.39;100;93726.23;;;;
2019/11/06 02:56:48;;;;;;;2.25;1.95;;;;;;;2.39;100;93726.23;;;;
2019/11/06 02:57:49;;;;;;;2.25;1.95;;;;;;;2.39;100;93726.23;;;;
2019/11/06 02:58:50;;;;;;;2.25;1.95;;;;;;;2.39;100;93726.23;;;;
2019/11/06 02:59:51;;;;;;;2.25;1.95;;;;;;;2.39;100;93726.23;;;;
2019/11/06 03:00:52;;;;;;;2.25;1.95;;;;;;;2.39;100;93726.23;;;;
2019/11/06 03:01:53;;;;;;;2.25;1.95;;;;;;;2.39;100;93726.23;;;;
2019/11/06 03:02:54;;;;;;;2.25;1.95;;;;;;;2.39;100;93726.23;;;;
2019/11/06 03:03:56;;;;;;;2.55;2;;;;;;;2.21;100;93737.83;;;;
2019/11/06 03:04:57;;;;;;;2.55;2;;;;;;;2.21;100;93737.83;;;;
2019/11/06 03:05:58;;;;;;;2.55;2;;;;;;;2.21;100;93737.83;;;;
2019/11/06 03:06:59;;;;;;;2.55;2;;;;;;;2.21;100;93737.83;;;;
2019/11/06 03:08:00;;;;;;;2.55;2;;;;;;;2.21;100;93737.83;;;;
2019/11/06 03:09:02;;;;;;;2.55;2;;;;;;;2.21;100;93737.83;;;;
2019/11/06 03:10:04;;;;;;;2.55;2;;;;;;;2.21;100;93737.83;;;;
2019/11/06 03:11:05;;;;;;;2.55;2;;;;;;;2.21;100;93737.83;;;;
2019/11/06 03:12:07;;;;;;;2.55;2;;;;;;;2.21;100;93737.83;;;;
2019/11/06 03:13:08;;;;;;;2.55;2;;;;;;;2.21;100;93737.83;;;;
2019/11/06 03:14:09;;;;;;;3.35;1.9;;;;;;;2.16;100;93754.05;;;;
2019/11/06 03:15:11;;;;;;;3.35;1.9;;;;;;;2.16;100;93754.05;;;;
2019/11/06 03:16:12;;;;;;;3.35;1.9;;;;;;;2.16;100;93754.05;;;;
2019/11/06 03:17:13;;;;;;;3.35;1.9;;;;;;;2.16;100;93754.05;;;;
2019/11/06 03:18:14;;;;;;;3.35;1.9;;;;;;;2.16;100;93754.05;;;;
2019/11/06 03:19:15;;;;;;;3.35;1.9;;;;;;;2.16;100;93754.05;;;;
2019/11/06 03:20:16;;;;;;;3.35;1.9;;;;;;;2.16;100;93754.05;;;;
2019/11/06 03:21:18;;;;;;;3.35;1.9;;;;;;;2.16;100;93754.05;;;;
2019/11/06 03:22:19;;;;;;;3.35;1.9;;;;;;;2.16;100;93754.05;;;;
2019/11/06 03:23:20;;;;;;;3.35;1.9;;;;;;;2.16;100;93754.05;;;;
2019/11/06 03:24:21;;;;;;;3.35;1.9;;;;;;;2.16;100;93754.05;;;;
2019/11/06 03:25:22;;;;;;;3.35;1.85;;;;;;;2.09;100;93749.31;;;;
2019/11/06 03:26:23;;;;;;;3.35;1.85;;;;;;;2.09;100;93749.31;;;;
2019/11/06 03:27:25;;;;;;;3.35;1.85;;;;;;;2.09;100;93749.31;;;;
2019/11/06 03:28:26;;;;;;;3.35;1.85;;;;;;;2.09;100;93749.31;;;;
2019/11/06 03:29:27;;;;;;;3.35;1.85;;;;;;;2.09;100;93749.31;;;;
2019/11/06 03:30:28;;;;;;;3.35;1.85;;;;;;;2.09;100;93749.31;;;;
2019/11/06 03:31:29;;;;;;;3.35;1.85;;;;;;;2.09;100;93749.31;;;;
2019/11/06 03:32:30;;;;;;;3.35;1.85;;;;;;;2.09;100;93749.31;;;;
2019/11/06 03:33:31;;;;;;;3.35;1.85;;;;;;;2.09;100;93749.31;;;;
2019/11/06 03:34:33;;;;;;;3.35;1.85;;;;;;;2.09;100;93749.31;;;;
2019/11/06 03:35:34;;;;;;;2.7;1.85;;;;;;;2.11;100;93748.16;;;;
2019/11/06 03:36:35;;;;;;;2.7;1.85;;;;;;;2.11;100;93748.16;;;;
2019/11/06 03:37:36;;;;;;;2.7;1.85;;;;;;;2.11;100;93748.16;;;;
2019/11/06 03:38:37;;;;;;;2.7;1.85;;;;;;;2.11;100;93748.16;;;;
2019/11/06 03:39:38;;;;;;;2.7;1.85;;;;;;;2.11;100;93748.16;;;;
2019/11/06 03:40:39;;;;;;;2.7;1.85;;;;;;;2.11;100;93748.16;;;;
2019/11/06 03:41:40;;;;;;;2.7;1.85;;;;;;;2.11;100;93748.16;;;;
2019/11/06 03:42:41;;;;;;;2.7;1.85;;;;;;;2.11;100;93748.16;;;;
2019/11/06 03:43:43;;;;;;;2.7;1.85;;;;;;;2.11;100;93748.16;;;;
2019/11/06 03:44:44;;;;;;;2.7;1.85;;;;;;;2.11;100;93748.16;;;;
2019/11/06 03:45:45;;;;;;;2.7;1.85;;;;;;;2.11;100;93748.16;;;;
2019/11/06 03:46:46;;;;;;;2.6;1.9;;;;;;;2.28;100;93756.79;;;;
2019/11/06 03:47:47;;;;;;;2.6;1.9;;;;;;;2.28;100;93756.79;;;;
2019/11/06 03:48:48;;;;;;;2.6;1.9;;;;;;;2.28;100;93756.79;;;;
2019/11/06 03:49:49;;;;;;;2.6;1.9;;;;;;;2.28;100;93756.79;;;;
2019/11/06 03:50:51;;;;;;;2.6;1.9;;;;;;;2.28;100;93756.79;;;;
2019/11/06 03:51:52;;;;;;;2.6;1.9;;;;;;;2.28;100;93756.79;;;;
2019/11/06 03:52:53;;;;;;;2.6;1.9;;;;;;;2.28;100;93756.79;;;;
2019/11/06 03:53:55;;;;;;;2.6;1.9;;;;;;;2.28;100;93756.79;;;;
2019/11/06 03:54:56;;;;;;;2.6;1.9;;;;;;;2.28;100;93756.79;;;;
2019/11/06 03:55:57;;;;;;;2.6;1.9;;;;;;;2.28;100;93756.79;;;;
2019/11/06 03:56:58;;;;;;;2.7;2.35;;;;;;;2.48;100;93771.09;;;;
2019/11/06 03:58:00;;;;;;;2.7;2.35;;;;;;;2.48;100;93771.09;;;;
2019/11/06 03:59:01;;;;;;;2.7;2.35;;;;;;;2.48;100;93771.09;;;;
2019/11/06 04:00:02;;;;;;;2.7;2.35;;;;;;;2.48;100;93771.09;;;;
2019/11/06 04:01:04;;;;;;;2.7;2.35;;;;;;;2.48;100;93771.09;;;;
2019/11/06 04:02:05;;;;;;;2.7;2.35;;;;;;;2.48;100;93771.09;;;;
2019/11/06 04:03:06;;;;;;;2.7;2.35;;;;;;;2.48;100;93771.09;;;;
2019/11/06 04:04:08;;;;;;;2.7;2.35;;;;;;;2.48;100;93771.09;;;;
2019/11/06 04:05:09;;;;;;;2.7;2.35;;;;;;;2.48;100;93771.09;;;;
2019/11/06 04:06:10;;;;;;;2.7;2.35;;;;;;;2.48;100;93771.09;;;;
2019/11/06 04:07:12;;;;;;;2.8;2.3;;;;;;;2.8;100;93769.86;;;;
2019/11/06 04:08:13;;;;;;;2.8;2.3;;;;;;;2.8;100;93769.86;;;;
2019/11/06 04:09:15;;;;;;;2.8;2.3;;;;;;;2.8;100;93769.86;;;;
2019/11/06 04:10:16;;;;;;;2.8;2.3;;;;;;;2.8;100;93769.86;;;;
2019/11/06 04:11:18;;;;;;;2.8;2.3;;;;;;;2.8;100;93769.86;;;;
2019/11/06 04:12:23;;;;;;;2.8;2.3;;;;;;;2.8;100;93769.86;;;;
2019/11/06 04:13:24;;;;;;;2.8;2.3;;;;;;;2.8;100;93769.86;;;;
2019/11/06 04:14:28;;;;;;;2.8;2.3;;;;;;;2.8;100;93769.86;;;;
2019/11/06 04:15:29;;;;;;;2.8;2.3;;;;;;;2.8;100;93769.86;;;;
2019/11/06 04:16:33;;;;;;;2.8;2.3;;;;;;;2.8;100;93769.86;;;;
2019/11/06 04:17:34;;;;;;;2.8;2.3;;;;;;;2.8;100;93769.86;;;;
2019/11/06 04:18:36;;;;;;;3.8;2.1;;;;;;;3.19;100;93772.46;;;;
2019/11/06 04:19:37;;;;;;;3.8;2.1;;;;;;;3.19;100;93772.46;;;;
2019/11/06 04:20:38;;;;;;;3.8;2.1;;;;;;;3.19;100;93772.46;;;;
2019/11/06 04:21:39;;;;;;;3.8;2.1;;;;;;;3.19;100;93772.46;;;;
2019/11/06 04:22:40;;;;;;;3.8;2.1;;;;;;;3.19;100;93772.46;;;;
2019/11/06 04:23:42;;;;;;;3.8;2.1;;;;;;;3.19;100;93772.46;;;;
2019/11/06 04:24:43;;;;;;;3.8;2.1;;;;;;;3.19;100;93772.46;;;;
2019/11/06 04:25:44;;;;;;;3.8;2.1;;;;;;;3.19;100;93772.46;;;;
2019/11/06 04:26:45;;;;;;;3.8;2.1;;;;;;;3.19;100;93772.46;;;;
2019/11/06 04:27:46;;;;;;;3.8;2.1;;;;;;;3.19;100;93772.46;;;;
2019/11/06 04:28:47;;;;;;;3.85;1.9;;;;;;;3.44;100;93785.1;;;;
2019/11/06 04:29:48;;;;;;;3.85;1.9;;;;;;;3.44;100;93785.1;;;;
2019/11/06 04:30:49;;;;;;;3.85;1.9;;;;;;;3.44;100;93785.1;;;;
2019/11/06 04:31:51;;;;;;;3.85;1.9;;;;;;;3.44;100;93785.1;;;;
2019/11/06 04:32:52;;;;;;;3.85;1.9;;;;;;;3.44;100;93785.1;;;;
2019/11/06 04:33:53;;;;;;;3.85;1.9;;;;;;;3.44;100;93785.1;;;;
2019/11/06 04:34:54;;;;;;;3.85;1.9;;;;;;;3.44;100;93785.1;;;;
2019/11/06 04:35:55;;;;;;;3.85;1.9;;;;;;;3.44;100;93785.1;;;;
2019/11/06 04:36:56;;;;;;;3.85;1.9;;;;;;;3.44;100;93785.1;;;;
2019/11/06 04:37:58;;;;;;;3.85;1.9;;;;;;;3.44;100;93785.1;;;;
2019/11/06 04:38:59;;;;;;;3.85;1.9;;;;;;;3.44;100;93785.1;;;;
2019/11/06 04:40:00;;;;;;;1.8;1.65;;;;;;;3.7;100;93784.19;;;;
2019/11/06 04:41:01;;;;;;;1.8;1.65;;;;;;;3.7;100;93784.19;;;;
2019/11/06 04:42:03;;;;;;;1.8;1.65;;;;;;;3.7;100;93784.19;;;;
2019/11/06 04:43:04;;;;;;;1.8;1.65;;;;;;;3.7;100;93784.19;;;;
2019/11/06 04:44:05;;;;;;;1.8;1.65;;;;;;;3.7;100;93784.19;;;;
2019/11/06 04:45:06;;;;;;;1.8;1.65;;;;;;;3.7;100;93784.19;;;;
2019/11/06 04:46:08;;;;;;;1.8;1.65;;;;;;;3.7;100;93784.19;;;;
2019/11/06 04:47:09;;;;;;;1.8;1.65;;;;;;;3.7;100;93784.19;;;;
2019/11/06 04:48:10;;;;;;;1.8;1.65;;;;;;;3.7;100;93784.19;;;;
2019/11/06 04:49:11;;;;;;;1.8;1.65;;;;;;;3.7;100;93784.19;;;;
2019/11/06 04:50:13;;;;;;;3.7;1.6;;;;;;;3.84;100;93785.69;;;;
2019/11/06 04:51:14;;;;;;;3.7;1.6;;;;;;;3.84;100;93785.69;;;;
2019/11/06 04:52:15;;;;;;;3.7;1.6;;;;;;;3.84;100;93785.69;;;;
2019/11/06 04:53:17;;;;;;;3.7;1.6;;;;;;;3.84;100;93785.69;;;;
2019/11/06 04:54:18;;;;;;;3.7;1.6;;;;;;;3.84;100;93785.69;;;;
2019/11/06 04:55:19;;;;;;;3.7;1.6;;;;;;;3.84;100;93785.69;;;;
2019/11/06 04:56:21;;;;;;;3.7;1.6;;;;;;;3.84;100;93785.69;;;;
2019/11/06 04:57:23;;;;;;;3.7;1.6;;;;;;;3.84;100;93785.69;;;;
2019/11/06 04:58:24;;;;;;;3.7;1.6;;;;;;;3.84;100;93785.69;;;;
2019/11/06 04:59:25;;;;;;;3.7;1.6;;;;;;;3.84;100;93785.69;;;;
2019/11/06 05:00:26;;;;;;;2.4;1.7;;;;;;;4;100;93795.15;;;;
2019/11/06 05:01:27;;;;;;;2.4;1.7;;;;;;;4;100;93795.15;;;;
2019/11/06 05:02:28;;;;;;;2.4;1.7;;;;;;;4;100;93795.15;;;;
2019/11/06 05:03:29;;;;;;;2.4;1.7;;;;;;;4;100;93795.15;;;;
2019/11/06 05:04:30;;;;;;;2.4;1.7;;;;;;;4;100;93795.15;;;;
2019/11/06 05:05:31;;;;;;;2.4;1.7;;;;;;;4;100;93795.15;;;;
2019/11/06 05:06:33;;;;;;;2.4;1.7;;;;;;;4;100;93795.15;;;;
2019/11/06 05:07:34;;;;;;;2.4;1.7;;;;;;;4;100;93795.15;;;;
2019/11/06 05:08:35;;;;;;;2.4;1.7;;;;;;;4;100;93795.15;;;;
2019/11/06 05:09:36;;;;;;;2.4;1.7;;;;;;;4;100;93795.15;;;;
2019/11/06 05:10:37;;;;;;;2.4;1.7;;;;;;;4;100;93795.15;;;;
2019/11/06 05:11:38;;;;;;;2.4;1.7;;;;;;;4;100;93795.15;;;;
2019/11/06 05:12:39;;;;;;;2.4;1.7;;;;;;;4;100;93795.15;;;;
2019/11/06 05:13:40;;;;;;;2.4;1.7;;;;;;;4;100;93795.15;;;;
2019/11/06 05:14:41;;;;;;;2.4;1.7;;;;;;;4;100;93795.15;;;;
2019/11/06 05:15:43;;;;;;;2.4;1.7;;;;;;;4;100;93795.15;;;;
2019/11/06 05:16:44;;;;;;;2.4;1.7;;;;;;;4;100;93795.15;;;;
2019/11/06 05:17:45;;;;;;;2.4;1.7;;;;;;;4;100;93795.15;;;;
2019/11/06 05:18:46;;;;;;;2.4;1.7;;;;;;;4;100;93795.15;;;;
2019/11/06 05:19:47;;;;;;;2.4;1.7;;;;;;;4;100;93795.15;;;;
2019/11/06 05:20:48;;;;;;;2.4;1.7;;;;;;;4;100;93795.15;;;;
2019/11/06 05:21:49;;;;;;;3;2.1;;;;;;;4.1;100;93815.54;;;;
2019/11/06 05:22:50;;;;;;;3;2.1;;;;;;;4.1;100;93815.54;;;;
2019/11/06 05:23:52;;;;;;;3;2.1;;;;;;;4.1;100;93815.54;;;;
2019/11/06 05:24:53;;;;;;;3;2.1;;;;;;;4.1;100;93815.54;;;;
2019/11/06 05:25:54;;;;;;;3;2.1;;;;;;;4.1;100;93815.54;;;;
2019/11/06 05:26:55;;;;;;;3;2.1;;;;;;;4.1;100;93815.54;;;;
2019/11/06 05:27:56;;;;;;;3;2.1;;;;;;;4.1;100;93815.54;;;;
2019/11/06 05:28:57;;;;;;;3;2.1;;;;;;;4.1;100;93815.54;;;;
2019/11/06 05:29:58;;;;;;;3;2.1;;;;;;;4.1;100;93815.54;;;;
2019/11/06 05:30:59;;;;;;;3;2.1;;;;;;;4.1;100;93815.54;;;;
2019/11/06 05:32:00;;;;;;;3;2.1;;;;;;;4.1;100;93815.54;;;;
2019/11/06 05:33:02;;;;;;;2.35;2.15;;;;;;;4.1;100;93827.97;;;;
2019/11/06 05:34:03;;;;;;;2.35;2.15;;;;;;;4.1;100;93827.97;;;;
2019/11/06 05:35:04;;;;;;;2.35;2.15;;;;;;;4.1;100;93827.97;;;;
2019/11/06 05:36:05;;;;;;;2.35;2.15;;;;;;;4.1;100;93827.97;;;;
2019/11/06 05:37:06;;;;;;;2.35;2.15;;;;;;;4.1;100;93827.97;;;;
2019/11/06 05:38:07;;;;;;;2.35;2.15;;;;;;;4.1;100;93827.97;;;;
2019/11/06 05:39:08;;;;;;;2.35;2.15;;;;;;;4.1;100;93827.97;;;;
2019/11/06 05:40:09;;;;;;;2.35;2.15;;;;;;;4.1;100;93827.97;;;;
2019/11/06 05:41:11;;;;;;;2.35;2.15;;;;;;;4.1;100;93827.97;;;;
2019/11/06 05:42:12;;;;;;;2.35;2.15;;;;;;;4.1;100;93827.97;;;;
2019/11/06 05:43:13;;;;;;;3.2;2.75;;;;;;;4.24;100;93835.11;;;;
2019/11/06 05:44:14;;;;;;;3.2;2.75;;;;;;;4.24;100;93835.11;;;;
2019/11/06 05:45:15;;;;;;;3.2;2.75;;;;;;;4.24;100;93835.11;;;;
2019/11/06 05:46:16;;;;;;;3.2;2.75;;;;;;;4.24;100;93835.11;;;;
2019/11/06 05:47:17;;;;;;;3.2;2.75;;;;;;;4.24;100;93835.11;;;;
2019/11/06 05:48:19;;;;;;;3.2;2.75;;;;;;;4.24;100;93835.11;;;;
2019/11/06 05:49:20;;;;;;;3.2;2.75;;;;;;;4.24;100;93835.11;;;;
2019/11/06 05:50:21;;;;;;;3.2;2.75;;;;;;;4.24;100;93835.11;;;;
2019/11/06 05:51:22;;;;;;;3.2;2.75;;;;;;;4.24;100;93835.11;;;;
2019/11/06 05:52:23;;;;;;;3.2;2.75;;;;;;;4.24;100;93835.11;;;;
2019/11/06 05:53:24;;;;;;;3.2;2.75;;;;;;;4.24;100;93835.11;;;;
2019/11/06 05:54:25;;;;;;;5.650001;2.95;;;;;;;4.32;100;93840.59;;;;
2019/11/06 05:55:26;;;;;;;5.650001;2.95;;;;;;;4.32;100;93840.59;;;;
2019/11/06 05:56:28;;;;;;;5.650001;2.95;;;;;;;4.32;100;93840.59;;;;
2019/11/06 05:57:29;;;;;;;5.650001;2.95;;;;;;;4.32;100;93840.59;;;;
2019/11/06 05:58:30;;;;;;;5.650001;2.95;;;;;;;4.32;100;93840.59;;;;
2019/11/06 05:59:31;;;;;;;5.650001;2.95;;;;;;;4.32;100;93840.59;;;;
2019/11/06 06:00:32;;;;;;;5.650001;2.95;;;;;;;4.32;100;93840.59;;;;
2019/11/06 06:01:33;;;;;;;5.650001;2.95;;;;;;;4.32;100;93840.59;;;;
2019/11/06 06:02:34;;;;;;;5.650001;2.95;;;;;;;4.32;100;93840.59;;;;
2019/11/06 06:03:35;;;;;;;5.650001;2.95;;;;;;;4.32;100;93840.59;;;;
2019/11/06 06:04:36;;;;;;;2.75;2.55;;;;;;;4.44;100;93852.11;;;;
2019/11/06 06:05:37;;;;;;;2.75;2.55;;;;;;;4.44;100;93852.11;;;;
2019/11/06 06:06:39;;;;;;;2.75;2.55;;;;;;;4.44;100;93852.11;;;;
2019/11/06 06:07:40;;;;;;;2.75;2.55;;;;;;;4.44;100;93852.11;;;;
2019/11/06 06:08:41;;;;;;;2.75;2.55;;;;;;;4.44;100;93852.11;;;;
2019/11/06 06:09:42;;;;;;;2.75;2.55;;;;;;;4.44;100;93852.11;;;;
2019/11/06 06:10:43;;;;;;;2.75;2.55;;;;;;;4.44;100;93852.11;;;;
2019/11/06 06:11:44;;;;;;;2.75;2.55;;;;;;;4.44;100;93852.11;;;;
2019/11/06 06:12:45;;;;;;;2.75;2.55;;;;;;;4.44;100;93852.11;;;;
2019/11/06 06:13:46;;;;;;;2.75;2.55;;;;;;;4.44;100;93852.11;;;;
2019/11/06 06:14:48;;;;;;;2.75;2.55;;;;;;;4.44;100;93852.11;;;;
2019/11/06 06:15:49;;;;;;;5.05;2.65;;;;;;;4.49;100;93855.3;;;;
2019/11/06 06:16:50;;;;;;;5.05;2.65;;;;;;;4.49;100;93855.3;;;;
2019/11/06 06:17:51;;;;;;;5.05;2.65;;;;;;;4.49;100;93855.3;;;;
2019/11/06 06:18:52;;;;;;;5.05;2.65;;;;;;;4.49;100;93855.3;;;;
2019/11/06 06:19:53;;;;;;;5.05;2.65;;;;;;;4.49;100;93855.3;;;;
2019/11/06 06:20:55;;;;;;;5.05;2.65;;;;;;;4.49;100;93855.3;;;;
2019/11/06 06:21:56;;;;;;;5.05;2.65;;;;;;;4.49;100;93855.3;;;;
2019/11/06 06:22:57;;;;;;;5.05;2.65;;;;;;;4.49;100;93855.3;;;;
2019/11/06 06:23:58;;;;;;;5.05;2.65;;;;;;;4.49;100;93855.3;;;;
2019/11/06 06:24:59;;;;;;;5.05;2.65;;;;;;;4.49;100;93855.3;;;;
2019/11/06 06:26:00;;;;;;;2.65;2.45;;;;;;;4.64;100;93869.53;;;;